Time;durP1;ratioP1;P1;durP2;ratioP2;P2;SDS_P1;SDS_P2;PMS_P1;PMS_P2;Temp;Humidity;BMP_temperature;BMP_pressure;BME280_temperature;BME280_humidity;BME280_pressure;Samples;Min_cycle;Max_cycle;Signal;HPM_P1;HPM_P2
2022/08/26 00:02:05;;;;;;;44.80;25.67;;;14.60;99.90;;;;;;5073853;28;20501;-74
2022/08/26 00:04:34;;;;;;;47.20;27.25;;;14.60;99.90;;;;;;5058027;28;20059;-75
2022/08/26 00:07:01;;;;;;;45.55;27.42;;;14.50;99.90;;;;;;5074750;28;20051;-74
2022/08/26 00:09:32;;;;;;;46.85;27.45;;;14.50;99.90;;;;;;5074065;28;20371;-76
2022/08/26 00:12:05;;;;;;;46.10;28.27;;;14.50;99.90;;;;;;5075272;28;20123;-75
2022/08/26 00:14:33;;;;;;;50.53;29.27;;;14.40;99.90;;;;;;5075113;28;20056;-74
2022/08/26 00:17:00;;;;;;;49.08;30.20;;;14.50;99.90;;;;;;5056213;28;20497;-74
2022/08/26 00:19:28;;;;;;;55.63;32.30;;;14.40;99.90;;;;;;5074681;28;20056;-75
2022/08/26 00:21:55;;;;;;;64.53;33.63;;;14.40;99.90;;;;;;5056124;28;20049;-75
2022/08/26 00:24:23;;;;;;;55.58;33.42;;;14.30;99.90;;;;;;5057448;28;20049;-75
2022/08/26 00:26:51;;;;;;;59.15;32.03;;;14.40;99.90;;;;;;5074095;28;20467;-75
2022/08/26 00:29:19;;;;;;;58.75;33.22;;;14.40;99.90;;;;;;5073351;28;20044;-74
2022/08/26 00:31:47;;;;;;;62.22;33.15;;;14.30;99.90;;;;;;5074941;28;20371;-74
2022/08/26 00:34:15;;;;;;;61.17;33.70;;;14.30;99.90;;;;;;5074333;28;20059;-74
2022/08/26 00:36:46;;;;;;;61.55;33.83;;;14.30;99.90;;;;;;5073625;28;20052;-76
2022/08/26 00:39:19;;;;;;;68.72;33.40;;;14.30;99.90;;;;;;5074929;28;20044;-76
2022/08/26 00:41:46;;;;;;;68.07;37.35;;;14.20;99.90;;;;;;5056033;28;20053;-73
2022/08/26 00:44:15;;;;;;;71.60;38.08;;;14.20;99.90;;;;;;5074463;28;20078;-74
2022/08/26 00:46:44;;;;;;;;;;;14.10;99.90;;;;;;5057280;28;20045;-75
2022/08/26 00:49:28;;;;;;;79.95;40.38;;;14.00;99.90;;;;;;5073757;28;19931;-75
2022/08/26 00:51:59;;;;;;;91.50;42.40;;;14.30;99.90;;;;;;5074549;28;20045;-76
2022/08/26 00:54:31;;;;;;;93.53;44.22;;;14.40;99.90;;;;;;5074604;28;20060;-75
2022/08/26 00:57:05;;;;;;;87.97;42.53;;;14.40;99.90;;;;;;5073675;28;20059;-74
2022/08/26 00:59:47;;;;;;;85.35;41.45;;;14.70;99.90;;;;;;5074980;28;20055;-75
2022/08/26 01:02:15;;;;;;;81.45;41.85;;;14.50;99.90;;;;;;5073265;28;20044;-75
2022/08/26 01:04:52;;;;;;;81.63;42.47;;;14.50;99.90;;;;;;5074337;28;20048;-75
2022/08/26 01:07:25;;;;;;;80.60;42.22;;;14.60;99.90;;;;;;5074371;28;20040;-74
2022/08/26 01:09:55;;;;;;;70.25;41.80;;;14.60;99.90;;;;;;5073229;28;20036;-75
2022/08/26 01:12:30;;;;;;;72.15;43.10;;;14.60;99.90;;;;;;5074862;28;20045;-74
2022/08/26 01:14:59;;;;;;;78.78;43.55;;;14.70;99.90;;;;;;5073181;28;20041;-75
2022/08/26 01:17:26;;;;;;;65.32;39.42;;;14.70;99.90;;;;;;5074451;28;20455;-74
2022/08/26 01:20:07;;;;;;;64.70;38.85;;;14.80;99.90;;;;;;5074243;28;20048;-76
2022/08/26 01:22:56;;;;;;;63.72;37.42;;;14.80;99.90;;;;;;5073053;28;20060;-75
2022/08/26 01:25:27;;;;;;;75.32;41.47;;;14.90;99.90;;;;;;5057027;28;20459;-76
2022/08/26 01:27:57;;;;;;;71.30;40.25;;;14.90;99.90;;;;;;5074171;28;20052;-75
2022/08/26 01:30:26;;;;;;;63.67;37.65;;;14.90;99.90;;;;;;5073124;28;20379;-75
2022/08/26 01:32:58;;;;;;;67.68;39.08;;;15.00;99.90;;;;;;5074492;28;20049;-75
2022/08/26 01:35:26;;;;;;;64.47;40.10;;;14.90;99.90;;;;;;5072831;28;20044;-75
2022/08/26 01:37:55;;;;;;;61.75;38.22;;;14.90;99.90;;;;;;5074035;28;20106;-75
2022/08/26 01:40:28;;;;;;;63.33;39.65;;;14.90;99.90;;;;;;5077732;28;20048;-75
2022/08/26 01:42:56;;;;;;;60.50;37.90;;;14.80;99.90;;;;;;5076547;28;20052;-75
2022/08/26 01:45:27;;;;;;;68.03;39.63;;;14.80;99.90;;;;;;5077635;28;20459;-74
2022/08/26 01:47:58;;;;;;;68.72;39.08;;;14.70;99.90;;;;;;5077973;28;20048;-74
2022/08/26 01:50:33;;;;;;;63.78;38.10;;;14.60;99.90;;;;;;5076626;28;20047;-75
2022/08/26 01:53:07;;;;;;;65.28;40.20;;;14.60;99.90;;;;;;5077549;28;20049;-76
2022/08/26 01:55:40;;;;;;;65.45;39.78;;;14.40;99.90;;;;;;5076578;28;20059;-75
2022/08/26 01:58:14;;;;;;;67.95;41.83;;;14.50;99.90;;;;;;5077608;28;20363;-74
2022/08/26 02:00:42;;;;;;;62.30;39.20;;;14.40;99.90;;;;;;5077697;28;20049;-75
2022/08/26 02:03:16;;;;;;;70.65;41.95;;;14.30;99.90;;;;;;5076200;28;20379;-75
2022/08/26 02:06:05;;;;;;;69.28;41.63;;;14.30;99.90;;;;;;5077432;28;20075;-75
2022/08/26 02:08:45;;;;;;;73.30;43.13;;;14.30;99.90;;;;;;5058794;28;20055;-76
2022/08/26 02:11:13;;;;;;;71.32;43.13;;;14.20;99.90;;;;;;5059480;28;20383;-75
2022/08/26 02:13:50;;;;;;;75.40;43.70;;;14.10;99.90;;;;;;5077269;28;20076;-75
2022/08/26 02:16:22;;;;;;;86.53;43.28;;;14.10;99.90;;;;;;5076069;28;20040;-74
2022/08/26 02:18:51;;;;;;;71.55;43.35;;;14.10;99.90;;;;;;5077347;28;20434;-75
2022/08/26 02:21:20;;;;;;;80.25;43.33;;;14.10;99.90;;;;;;5077013;28;20052;-74
2022/08/26 02:23:47;;;;;;;78.18;42.53;;;14.00;99.90;;;;;;5075825;28;20486;-74
2022/08/26 02:26:19;;;;;;;75.68;42.90;;;13.90;99.90;;;;;;5077112;28;20363;-76
2022/08/26 02:28:54;;;;;;;76.30;41.97;;;13.90;99.90;;;;;;5075761;28;20047;-74
2022/08/26 02:31:22;;;;;;;70.15;42.53;;;13.80;99.90;;;;;;5077156;28;20052;-76
2022/08/26 02:33:50;;;;;;;78.53;42.90;;;13.70;99.90;;;;;;5076979;28;20040;-75
2022/08/26 02:36:20;;;;;;;83.90;44.10;;;13.60;99.90;;;;;;5075988;28;20381;-75
2022/08/26 02:38:48;;;;;;;81.70;44.65;;;13.60;99.90;;;;;;5076604;28;20044;-75
2022/08/26 02:41:18;;;;;;;86.57;45.42;;;13.50;99.90;;;;;;5076673;28;20049;-76
2022/08/26 02:43:49;;;;;;;87.35;46.00;;;13.50;99.90;;;;;;5075524;28;20053;-74
2022/08/26 02:46:16;;;;;;;84.80;44.42;;;13.40;99.90;;;;;;5077033;28;20505;-76
2022/08/26 02:48:57;;;;;;;83.72;44.55;;;13.40;99.90;;;;;;5075530;28;20049;-75
2022/08/26 02:51:24;;;;;;;76.25;43.17;;;13.40;99.90;;;;;;5075540;28;20052;-74
2022/08/26 02:53:53;;;;;;;93.13;47.67;;;13.20;99.90;;;;;;5058850;28;20041;-74
2022/08/26 02:56:22;;;;;;;86.18;44.97;;;13.20;99.90;;;;;;5058308;28;20045;-74
2022/08/26 02:58:50;;;;;;;88.88;46.58;;;13.30;99.90;;;;;;5076459;28;20044;-73
2022/08/26 03:01:25;;;;;;;99.28;46.90;;;13.10;99.90;;;;;;5076103;28;20040;-76
2022/08/26 03:03:54;;;;;;;89.30;47.15;;;13.20;99.90;;;;;;5075301;28;20060;-74
2022/08/26 03:06:23;;;;;;;89.05;48.60;;;13.10;99.90;;;;;;5076280;28;20059;-75
2022/08/26 03:08:52;;;;;;;82.15;46.08;;;13.10;99.90;;;;;;5074861;28;20040;-74
2022/08/26 03:11:19;;;;;;;83.55;45.55;;;13.20;99.90;;;;;;5075991;28;20036;-75
2022/08/26 03:13:48;;;;;;;92.20;47.45;;;13.00;99.90;;;;;;5076220;28;20049;-74
2022/08/26 03:16:16;;;;;;;83.55;44.58;;;12.90;99.90;;;;;;5075187;28;20617;-76
2022/08/26 03:18:44;;;;;;;92.70;46.78;;;13.00;99.90;;;;;;5058556;28;20041;-74
2022/08/26 03:21:19;;;;;;;88.22;45.97;;;12.90;99.90;;;;;;5076444;28;20379;-75
2022/08/26 03:23:47;;;;;;;85.28;46.58;;;12.80;99.90;;;;;;5074710;28;20048;-75
2022/08/26 03:26:15;;;;;;;89.22;48.00;;;12.80;99.90;;;;;;5058605;28;20067;-74
2022/08/26 03:31:29;;;;;;;88.63;47.00;;;12.80;99.90;;;;;;5076260;28;20048;-74
2022/08/26 03:33:58;;;;;;;91.63;45.00;;;12.80;99.90;;;;;;5075310;28;20044;-74
2022/08/26 03:36:26;;;;;;;92.47;48.88;;;12.70;99.90;;;;;;5074500;28;20064;-76
2022/08/26 03:38:55;;;;;;;93.03;46.90;;;12.70;99.90;;;;;;5075411;28;20498;-74
2022/08/26 03:41:23;;;;;;;88.47;44.80;;;12.70;99.90;;;;;;5075421;28;20059;-75
2022/08/26 03:43:51;;;;;;;94.50;46.13;;;12.70;99.90;;;;;;5057162;28;20048;-75
2022/08/26 03:46:19;;;;;;;102.45;45.28;;;12.60;99.90;;;;;;5075574;28;20044;-76
2022/08/26 03:48:47;;;;;;;88.18;45.35;;;12.60;99.90;;;;;;5073974;28;20043;-74
2022/08/26 03:51:17;;;;;;;102.78;47.75;;;12.60;99.90;;;;;;5075628;28;20045;-73
2022/08/26 03:53:46;;;;;;;95.97;48.63;;;12.50;99.90;;;;;;5075136;28;20051;-75
2022/08/26 03:56:14;;;;;;;97.88;50.95;;;12.50;99.90;;;;;;5056794;28;20043;-75
2022/08/26 03:58:43;;;;;;;104.57;51.30;;;12.50;99.90;;;;;;5058642;28;20049;-74
2022/08/26 04:01:13;;;;;;;90.63;47.50;;;12.60;99.90;;;;;;5075346;28;20059;-75
2022/08/26 04:03:57;;;;;;;104.45;51.05;;;12.50;99.90;;;;;;5056594;28;20475;-75
2022/08/26 04:06:33;;;;;;;98.55;49.42;;;12.50;99.90;;;;;;5075112;28;20048;-75
2022/08/26 04:09:06;;;;;;;107.10;48.60;;;12.50;99.90;;;;;;5057021;28;20051;-74
2022/08/26 04:11:34;;;;;;;109.57;50.17;;;12.50;99.90;;;;;;5075236;28;20059;-75
2022/08/26 04:14:09;;;;;;;97.82;48.33;;;12.40;99.90;;;;;;5074814;28;20060;-74
2022/08/26 04:16:37;;;;;;;102.60;48.95;;;12.40;99.90;;;;;;5073876;28;20049;-75
2022/08/26 04:19:06;;;;;;;86.65;43.42;;;12.40;99.90;;;;;;5074933;28;20375;-74
2022/08/26 04:21:34;;;;;;;92.65;44.58;;;12.40;99.90;;;;;;5073881;28;20044;-75
2022/08/26 04:24:02;;;;;;;82.43;43.28;;;12.40;99.90;;;;;;5074670;28;20059;-74
2022/08/26 04:26:36;;;;;;;92.00;44.45;;;12.40;99.90;;;;;;5074889;28;20047;-74
2022/08/26 04:29:14;;;;;;;79.85;41.80;;;12.50;99.90;;;;;;5073549;28;20036;-74
2022/08/26 04:31:43;;;;;;;85.85;41.88;;;12.40;99.90;;;;;;5074945;28;20041;-74
2022/08/26 04:34:11;;;;;;;84.20;40.92;;;12.50;99.90;;;;;;5057193;28;20464;-75
2022/08/26 04:36:42;;;;;;;81.47;40.60;;;12.50;99.90;;;;;;5073442;28;20049;-75
2022/08/26 04:39:11;;;;;;;77.15;40.78;;;12.50;99.90;;;;;;5074648;28;20051;-74
2022/08/26 04:41:39;;;;;;;79.05;40.92;;;12.40;99.90;;;;;;5056085;28;20052;-75
2022/08/26 04:44:07;;;;;;;80.88;40.90;;;12.40;99.90;;;;;;5074772;28;20048;-74
2022/08/26 04:46:35;;;;;;;83.72;41.03;;;12.40;99.90;;;;;;5074981;28;20063;-74
2022/08/26 04:49:10;;;;;;;81.13;39.70;;;12.50;99.90;;;;;;5073282;28;20040;-74
2022/08/26 04:51:38;;;;;;;75.53;39.92;;;12.40;99.90;;;;;;5074555;28;20045;-74
2022/08/26 04:54:06;;;;;;;70.28;38.22;;;12.50;99.90;;;;;;5075114;28;20059;-75
2022/08/26 04:56:37;;;;;;;75.30;38.17;;;12.40;99.90;;;;;;5055714;28;20049;-75
2022/08/26 04:59:07;;;;;;;72.88;35.88;;;13.00;99.90;;;;;;5074557;28;20048;-74
2022/08/26 05:01:50;;;;;;;70.75;37.78;;;12.30;99.90;;;;;;5073563;28;20056;-76
2022/08/26 05:04:18;;;;;;;72.25;38.00;;;12.30;99.90;;;;;;5057252;28;20044;-74
2022/08/26 05:06:48;;;;;;;67.78;37.30;;;12.30;99.90;;;;;;5074405;28;20068;-74
2022/08/26 05:09:20;;;;;;;66.28;36.67;;;12.40;99.90;;;;;;5073416;28;20048;-75
2022/08/26 05:11:48;;;;;;;76.57;37.22;;;12.20;99.90;;;;;;5074691;28;20041;-75
2022/08/26 05:14:22;;;;;;;80.10;39.17;;;12.20;99.90;;;;;;5076627;28;20055;-75
2022/08/26 05:16:50;;;;;;;65.35;36.25;;;12.40;99.90;;;;;;5077515;28;20478;-74
2022/08/26 05:19:18;;;;;;;86.03;37.67;;;12.20;99.90;;;;;;5078379;28;20048;-74
2022/08/26 05:21:48;;;;;;;79.47;39.83;;;12.60;99.90;;;;;;5077285;28;20040;-75
2022/08/26 05:24:16;;;;;;;70.40;39.15;;;12.20;99.90;;;;;;5078270;28;20044;-74
2022/08/26 05:26:44;;;;;;;81.63;40.22;;;12.10;99.90;;;;;;5060950;28;20044;-75
2022/08/26 05:29:12;;;;;;;94.38;44.03;;;12.30;99.90;;;;;;5076824;28;20044;-76
2022/08/26 05:31:40;;;;;;;106.03;43.95;;;12.20;99.90;;;;;;5078155;28;20052;-73
2022/08/26 05:34:08;;;;;;;108.65;45.70;;;12.20;99.90;;;;;;5077688;28;20041;-73
2022/08/26 05:36:36;;;;;;;106.45;46.55;;;12.30;99.90;;;;;;5059386;28;20048;-74
2022/08/26 05:39:05;;;;;;;130.45;49.35;;;12.20;99.90;;;;;;5060825;28;20497;-74
2022/08/26 05:41:37;;;;;;;99.05;47.65;;;12.20;99.90;;;;;;5076764;28;20051;-76
2022/08/26 05:44:08;;;;;;;200.02;54.90;;;12.30;99.90;;;;;;5044082;28;20056;-75
2022/08/26 05:46:37;;;;;;;138.23;52.25;;;12.40;99.90;;;;;;5060104;28;20111;-74
2022/08/26 05:49:06;;;;;;;160.73;54.85;;;12.40;99.90;;;;;;5076748;28;20041;-75
2022/08/26 05:51:40;;;;;;;159.50;54.65;;;12.50;99.90;;;;;;5077450;28;20087;-75
2022/08/26 05:54:08;;;;;;;159.82;56.70;;;12.70;99.90;;;;;;5077870;28;20041;-75
2022/08/26 05:56:38;;;;;;;172.88;59.83;;;12.60;99.90;;;;;;5076313;28;20044;-75
2022/08/26 05:59:11;;;;;;;171.48;57.38;;;12.70;99.90;;;;;;5059774;28;20059;-75
2022/08/26 06:01:42;;;;;;;179.05;58.40;;;12.80;99.90;;;;;;5075424;28;20049;-74
2022/08/26 06:04:10;;;;;;;150.15;56.75;;;12.90;99.90;;;;;;5077507;28;20053;-74
2022/08/26 06:06:40;;;;;;;129.30;54.28;;;13.00;99.90;;;;;;5077478;28;20052;-75
2022/08/26 06:09:09;;;;;;;124.43;53.33;;;12.90;99.90;;;;;;5076127;28;20049;-75
2022/08/26 06:11:38;;;;;;;120.95;50.33;;;13.10;99.90;;;;;;5077288;28;20359;-75
2022/08/26 06:14:07;;;;;;;97.45;48.58;;;13.10;99.90;;;;;;5059780;28;20447;-75
2022/08/26 06:16:38;;;;;;;108.40;46.15;;;13.20;99.90;;;;;;5076070;28;20040;-79
2022/08/26 06:19:09;;;;;;;107.07;46.22;;;13.20;99.90;;;;;;5077162;28;20053;-74
2022/08/26 06:21:44;;;;;;;153.90;49.22;;;13.10;99.90;;;;;;5076176;28;20052;-75
2022/08/26 06:27:03;;;;;;;139.65;47.10;;;13.30;99.90;;;;;;5076162;28;20045;-75
2022/08/26 06:29:33;;;;;;;93.07;46.25;;;13.50;99.90;;;;;;5075822;28;20119;-75
2022/08/26 06:32:03;;;;;;;121.53;44.10;;;13.80;99.90;;;;;;5076974;28;20044;-75
2022/08/26 06:34:33;;;;;;;94.65;43.33;;;13.80;99.90;;;;;;5076668;28;20060;-74
2022/08/26 06:37:01;;;;;;;79.38;40.95;;;13.30;99.90;;;;;;5075706;28;20040;-75
2022/08/26 06:39:30;;;;;;;78.18;39.80;;;13.50;99.90;;;;;;5076915;28;20048;-75
2022/08/26 06:41:59;;;;;;;64.32;37.65;;;13.40;99.90;;;;;;5075576;28;20471;-75
2022/08/26 06:44:29;;;;;;;62.45;38.25;;;13.40;99.90;;;;;;5059495;28;20075;-74
2022/08/26 06:46:58;;;;;;;74.55;37.45;;;13.40;99.90;;;;;;5059043;28;20052;-74
2022/08/26 06:49:26;;;;;;;61.30;36.00;;;13.40;99.90;;;;;;5075345;28;20051;-76
2022/08/26 06:51:58;;;;;;;64.38;36.30;;;13.50;99.90;;;;;;5076480;28;20044;-74
2022/08/26 06:54:27;;;;;;;56.65;35.20;;;13.50;99.90;;;;;;5076889;28;20041;-75
2022/08/26 06:56:55;;;;;;;63.65;36.47;;;13.40;99.90;;;;;;5075336;28;20051;-74
2022/08/26 06:59:24;;;;;;;57.15;36.58;;;13.60;99.90;;;;;;5076634;28;20055;-75
2022/08/26 07:01:51;;;;;;;62.35;38.70;;;13.40;99.90;;;;;;5075272;28;20060;-75
2022/08/26 07:04:20;;;;;;;66.50;38.95;;;13.50;99.90;;;;;;5058749;28;20060;-75
2022/08/26 07:06:51;;;;;;;67.15;39.97;;;13.60;99.90;;;;;;5076076;28;20044;-73
2022/08/26 07:09:22;;;;;;;75.13;40.20;;;13.40;99.90;;;;;;5074165;28;20602;-74
2022/08/26 07:11:50;;;;;;;68.75;39.83;;;13.50;99.90;;;;;;5041861;28;20044;-74
2022/08/26 07:14:18;;;;;;;65.75;40.53;;;13.50;99.90;;;;;;5058345;28;20048;-73
2022/08/26 07:16:49;;;;;;;71.20;42.03;;;13.60;99.90;;;;;;5057688;28;20045;-74
2022/08/26 07:19:18;;;;;;;75.20;43.25;;;13.70;99.90;;;;;;5058039;28;20059;-74
2022/08/26 07:22:00;;;;;;;75.13;43.90;;;13.70;99.90;;;;;;5074363;28;20048;-74
2022/08/26 07:24:29;;;;;;;74.03;44.22;;;13.70;99.90;;;;;;5075442;28;20463;-73
2022/08/26 07:26:59;;;;;;;71.43;43.58;;;13.80;99.90;;;;;;5075606;28;20048;-76
2022/08/26 07:29:28;;;;;;;76.00;41.05;;;13.90;99.90;;;;;;5056961;28;20055;-74
2022/08/26 07:31:56;;;;;;;74.03;40.08;;;14.00;99.90;;;;;;5057812;28;20044;-74
2022/08/26 07:34:24;;;;;;;65.03;37.45;;;13.90;99.90;;;;;;5075122;28;20060;-74
2022/08/26 07:36:52;;;;;;;;;;;14.00;99.90;;;;;;5074046;28;20044;-74
2022/08/26 07:39:22;;;;;;;66.53;36.92;;;13.80;99.90;;;;;;5057710;28;19935;-74
2022/08/26 07:41:51;;;;;;;63.05;36.47;;;14.10;99.90;;;;;;5056738;28;20834;-74
2022/08/26 07:44:19;;;;;;;72.65;38.55;;;14.10;99.90;;;;;;5057805;28;20044;-76
2022/08/26 07:46:47;;;;;;;64.03;35.15;;;14.20;99.90;;;;;;5040874;28;20455;-74
2022/08/26 07:49:21;;;;;;;58.33;33.83;;;14.20;99.90;;;;;;5073596;28;20044;-74
2022/08/26 07:51:50;;;;;;;57.60;34.17;;;14.20;99.90;;;;;;5057460;28;20056;-76
2022/08/26 07:54:18;;;;;;;49.45;30.65;;;14.30;99.90;;;;;;5075093;28;20059;-75
2022/08/26 07:56:48;;;;;;;50.85;30.25;;;14.20;99.90;;;;;;5073941;28;20502;-74
2022/08/26 07:59:18;;;;;;;47.70;26.92;;;14.40;99.90;;;;;;5075116;28;20044;-74
2022/08/26 08:01:47;;;;;;;39.03;25.95;;;14.50;99.90;;;;;;5073768;28;20048;-75
2022/08/26 08:04:17;;;;;;;37.08;23.23;;;14.20;99.90;;;;;;5074409;28;20049;-75
2022/08/26 08:06:52;;;;;;;35.58;22.13;;;14.60;99.90;;;;;;5075031;28;20048;-74
2022/08/26 08:09:21;;;;;;;31.38;20.95;;;14.60;99.90;;;;;;5073766;28;20049;-74
2022/08/26 08:11:49;;;;;;;29.92;19.58;;;14.70;99.90;;;;;;5074844;28;20375;-74
2022/08/26 08:14:18;;;;;;;35.03;19.02;;;14.70;99.90;;;;;;5074833;28;20049;-74
2022/08/26 08:16:49;;;;;;;28.27;15.27;;;14.80;99.90;;;;;;5056267;28;20052;-75
2022/08/26 08:19:22;;;;;;;27.75;16.30;;;14.80;99.90;;;;;;5075393;28;20056;-75
2022/08/26 08:21:56;;;;;;;27.58;16.08;;;14.80;99.90;;;;;;5074045;28;20048;-76
2022/08/26 08:24:23;;;;;;;28.48;15.65;;;14.90;99.90;;;;;;5074992;28;20044;-75
2022/08/26 08:26:51;;;;;;;27.88;14.30;;;15.10;99.90;;;;;;5074679;28;20051;-76
2022/08/26 08:29:22;;;;;;;22.67;13.07;;;15.00;99.90;;;;;;5056715;28;20460;-73
2022/08/26 08:31:51;;;;;;;26.80;15.68;;;15.20;99.90;;;;;;5074474;28;20063;-76
2022/08/26 08:34:27;;;;;;;26.80;15.60;;;15.30;99.90;;;;;;5057197;28;20052;-76
2022/08/26 08:36:56;;;;;;;21.90;12.50;;;15.20;99.90;;;;;;5073279;28;20665;-76
2022/08/26 08:39:25;;;;;;;23.05;14.85;;;15.40;99.90;;;;;;5056752;28;20040;-73
2022/08/26 08:42:32;;;;;;;23.70;13.30;;;15.30;99.90;;;;;;5073801;28;20052;-76
2022/08/26 08:45:06;;;;;;;16.00;10.15;;;15.50;99.90;;;;;;5074466;28;20044;-74
2022/08/26 08:47:41;;;;;;;17.77;9.38;;;15.50;99.90;;;;;;5057213;28;20056;-75
2022/08/26 08:50:29;;;;;;;17.13;7.82;;;15.70;99.90;;;;;;5055136;28;20071;-77
2022/08/26 08:53:17;;;;;;;21.73;10.23;;;15.80;99.90;;;;;;5074590;28;20047;-74
2022/08/26 08:55:48;;;;;;;;;;;15.90;99.90;;;;;;5056259;28;20045;-73
2022/08/26 08:58:19;;;;;;;19.65;8.07;;;15.80;99.90;;;;;;5074423;28;19920;-74
2022/08/26 09:00:56;;;;;;;14.10;7.80;;;16.00;99.90;;;;;;5074782;28;20044;-73
2022/08/26 09:03:23;;;;;;;16.33;8.32;;;16.00;99.90;;;;;;5056285;28;20459;-75
2022/08/26 09:05:53;;;;;;;16.52;8.43;;;16.20;99.90;;;;;;5074581;28;20052;-74
2022/08/26 09:08:27;;;;;;;17.95;8.63;;;16.20;99.90;;;;;;5073318;28;20387;-76
2022/08/26 09:10:58;;;;;;;16.35;7.75;;;16.40;99.90;;;;;;5039982;28;20368;-74
2022/08/26 09:13:27;;;;;;;18.35;6.28;;;16.50;99.90;;;;;;5057027;28;20051;-74
2022/08/26 09:16:02;;;;;;;17.38;7.57;;;16.30;99.90;;;;;;5073786;28;20486;-75
2022/08/26 09:18:33;;;;;;;14.35;6.00;;;16.90;99.90;;;;;;5074570;28;20383;-76
2022/08/26 09:21:04;;;;;;;13.32;5.35;;;16.80;99.90;;;;;;5040322;28;20048;-73
2022/08/26 09:23:34;;;;;;;17.98;5.10;;;17.20;99.90;;;;;;5055620;28;20048;-74
2022/08/26 09:26:37;;;;;;;13.48;5.00;;;17.10;99.90;;;;;;5074346;28;20471;-73
2022/08/26 09:29:26;;;;;;;11.32;4.70;;;17.20;99.90;;;;;;5042099;28;20060;-74
2022/08/26 09:32:22;;;;;;;13.40;4.65;;;17.40;99.90;;;;;;5073959;28;20049;-75
2022/08/26 09:34:53;;;;;;;13.18;4.60;;;17.50;99.90;;;;;;5073819;28;20048;-76
2022/08/26 09:37:39;;;;;;;13.38;4.70;;;17.60;99.90;;;;;;5074234;28;20044;-74
2022/08/26 09:40:21;;;;;;;12.68;3.75;;;17.70;99.90;;;;;;5056364;28;20045;-75
2022/08/26 09:43:20;;;;;;;13.65;4.30;;;17.80;99.90;;;;;;5072881;28;20044;-76
2022/08/26 09:45:54;;;;;;;9.90;4.05;;;17.80;99.90;;;;;;5074385;28;20044;-74
2022/08/26 09:48:35;;;;;;;15.60;4.63;;;18.00;99.90;;;;;;5072731;28;20055;-74
2022/08/26 09:51:25;;;;;;;12.00;3.60;;;17.90;99.90;;;;;;5056625;28;20048;-73
2022/08/26 09:53:56;;;;;;;11.50;3.92;;;18.00;99.90;;;;;;5056428;28;20060;-73
2022/08/26 09:56:37;;;;;;;9.80;3.40;;;18.00;99.90;;;;;;5072902;28;20041;-74
2022/08/26 09:59:09;;;;;;;12.43;3.00;;;18.00;99.90;;;;;;5073438;28;20389;-79
2022/08/26 10:01:45;;;;;;;12.00;3.22;;;18.10;99.90;;;;;;5059869;28;20383;-76
2022/08/26 10:04:59;;;;;;;10.57;2.90;;;18.40;99.90;;;;;;5063487;28;20059;-77
2022/08/26 10:07:50;;;;;;;8.15;3.22;;;18.80;99.90;;;;;;5063061;28;20044;-77
2022/08/26 10:10:31;;;;;;;10.52;2.78;;;18.50;99.90;;;;;;5058865;28;20044;-76
2022/08/26 10:13:53;;;;;;;9.25;3.10;;;18.60;99.90;;;;;;5061515;28;20041;-77
2022/08/26 10:16:51;;;;;;;15.40;3.70;;;20.20;99.90;;;;;;5058387;28;20368;-77
2022/08/26 10:20:04;;;;;;;12.70;3.10;;;19.30;99.90;;;;;;5074469;28;20040;-78
2022/08/26 10:23:11;;;;;;;8.95;2.85;;;17.10;99.90;;;;;;5075717;28;20352;-79
2022/08/26 10:25:52;;;;;;;15.18;3.15;;;17.70;99.90;;;;;;5059661;28;20352;-77
2022/08/26 10:29:05;;;;;;;10.68;3.00;;;20.60;99.90;;;;;;5042543;28;20059;-77
2022/08/26 10:31:47;;;;;;;11.30;3.00;;;20.50;99.90;;;;;;5044563;28;20053;-77
2022/08/26 10:34:18;;;;;;;10.90;3.80;;;19.20;99.90;;;;;;5076939;28;20044;-76
2022/08/26 10:37:01;;;;;;;12.18;3.55;;;19.30;99.90;;;;;;5075597;28;20041;-76
2022/08/26 10:39:51;;;;;;;12.02;3.53;;;19.30;99.90;;;;;;5076458;28;20048;-76
2022/08/26 10:42:27;;;;;;;11.90;3.30;;;19.30;99.90;;;;;;5057468;28;20041;-74
2022/08/26 10:45:02;;;;;;;15.65;3.55;;;19.40;99.90;;;;;;5059140;28;20069;-81
2022/08/26 10:48:33;;;;;;;17.38;3.53;;;19.40;99.90;;;;;;4963294;28;20546;-81
2022/08/26 10:51:17;;;;;;;12.95;3.75;;;20.30;99.90;;;;;;4975723;28;20389;-81
2022/08/26 10:54:16;;;;;;;13.07;4.03;;;21.00;99.90;;;;;;4975858;28;20051;-75
2022/08/26 10:57:10;;;;;;;10.98;3.80;;;19.80;99.90;;;;;;4957793;28;20054;-76
2022/08/26 10:59:55;;;;;;;13.45;3.53;;;19.90;99.90;;;;;;4932400;28;20046;-75
2022/08/26 11:02:42;;;;;;;13.45;3.70;;;20.00;99.90;;;;;;4957895;28;20055;-74
2022/08/26 11:05:18;;;;;;;11.52;3.63;;;20.40;99.90;;;;;;4970954;28;20482;-78
2022/08/26 11:07:53;;;;;;;9.38;3.10;;;20.30;99.90;;;;;;4954862;29;20058;-77
2022/08/26 11:10:24;;;;;;;13.63;3.20;;;20.50;99.90;;;;;;5011225;28;20057;-77
2022/08/26 11:13:02;;;;;;;10.90;2.92;;;20.60;99.90;;;;;;5055699;28;20052;-76
2022/08/26 11:15:30;;;;;;;15.32;3.33;;;20.70;99.90;;;;;;5055256;28;20037;-76
2022/08/26 11:18:12;;;;;;;8.07;2.92;;;20.90;99.90;;;;;;5056153;28;20063;-73
2022/08/26 11:20:43;;;;;;;8.35;2.75;;;21.10;99.90;;;;;;5056055;28;20452;-76
2022/08/26 11:23:12;;;;;;;8.25;2.90;;;21.30;99.70;;;;;;5037738;28;20388;-74
2022/08/26 11:25:57;;;;;;;7.15;2.70;;;21.40;99.80;;;;;;5055833;28;20048;-74
2022/08/26 11:28:39;;;;;;;9.18;2.78;;;21.60;98.60;;;;;;5054854;28;20527;-75
2022/08/26 11:31:32;;;;;;;7.38;2.67;;;22.30;98.10;;;;;;5055933;28;20052;-76
2022/08/26 11:34:05;;;;;;;11.63;2.90;;;22.10;98.90;;;;;;5059303;28;20033;-79
2022/08/26 11:36:46;;;;;;;11.57;3.08;;;22.00;98.00;;;;;;5074484;28;20048;-80
2022/08/26 11:39:29;;;;;;;9.18;2.78;;;22.10;96.70;;;;;;5076138;28;20036;-79
2022/08/26 11:42:30;;;;;;;9.77;2.78;;;22.10;96.20;;;;;;5074643;28;20051;-77
2022/08/26 11:45:13;;;;;;;;;;;22.70;95.60;;;;;;5075299;28;20049;-73
2022/08/26 11:47:40;;;;;;;12.05;2.45;;;22.10;94.70;;;;;;5075806;28;19943;-76
2022/08/26 11:50:17;;;;;;;11.18;2.50;;;22.00;97.20;;;;;;5072699;28;20361;-77
2022/08/26 11:53:03;;;;;;;8.68;2.80;;;22.10;96.10;;;;;;5056902;28;20036;-79
2022/08/26 11:55:40;;;;;;;6.68;2.53;;;22.00;95.60;;;;;;5074065;28;20459;-77
2022/08/26 11:58:11;;;;;;;8.50;2.65;;;20.80;96.40;;;;;;5057811;28;20482;-77
2022/08/26 12:00:50;;;;;;;8.82;2.40;;;21.80;96.70;;;;;;5074902;28;20423;-77
2022/08/26 12:03:25;;;;;;;11.02;2.70;;;21.90;94.90;;;;;;5073843;28;20053;-77
2022/08/26 12:05:56;;;;;;;5.97;2.13;;;21.90;95.10;;;;;;5057006;28;20045;-76
2022/08/26 12:08:29;;;;;;;5.47;2.10;;;22.10;95.50;;;;;;5073782;28;20076;-77
2022/08/26 12:11:07;;;;;;;7.10;2.50;;;22.00;95.70;;;;;;5057316;28;20059;-77
2022/08/26 12:13:37;;;;;;;11.77;3.10;;;22.00;94.50;;;;;;5074875;28;20394;-76
2022/08/26 12:16:06;;;;;;;12.05;2.67;;;22.10;95.30;;;;;;5073615;28;20044;-76
2022/08/26 12:18:37;;;;;;;9.80;2.60;;;21.60;95.00;;;;;;5074410;28;20040;-76
2022/08/26 12:21:21;;;;;;;5.95;2.40;;;22.30;94.40;;;;;;5057790;28;20047;-77
2022/08/26 12:23:54;;;;;;;9.85;2.63;;;23.10;93.40;;;;;;5053122;28;20037;-76
2022/08/26 12:26:28;;;;;;;12.57;2.95;;;23.60;94.00;;;;;;5053777;28;20471;-77
2022/08/26 12:29:08;;;;;;;9.10;2.95;;;22.80;93.80;;;;;;5073059;28;20044;-76
2022/08/26 12:31:47;;;;;;;9.18;2.53;;;23.00;92.00;;;;;;5056085;28;20052;-76
2022/08/26 12:34:16;;;;;;;10.15;3.08;;;22.90;93.60;;;;;;5073967;28;20375;-77
2022/08/26 12:36:54;;;;;;;11.55;2.80;;;23.00;93.30;;;;;;5056093;28;20049;-77
2022/08/26 12:39:30;;;;;;;9.77;2.97;;;23.00;92.60;;;;;;5074416;28;20044;-77
2022/08/26 12:41:59;;;;;;;8.98;2.45;;;23.00;92.30;;;;;;5073395;28;20375;-77
2022/08/26 12:44:48;;;;;;;7.60;2.42;;;23.20;92.90;;;;;;5074386;28;20056;-77
2022/08/26 12:47:32;;;;;;;9.57;2.33;;;21.40;91.90;;;;;;5039532;28;20052;-77
2022/08/26 12:50:18;;;;;;;8.05;3.15;;;23.10;91.40;;;;;;5073331;28;20053;-77
2022/08/26 12:52:52;;;;;;;8.27;2.60;;;23.20;91.70;;;;;;5074339;28;20040;-78
2022/08/26 12:55:30;;;;;;;8.32;2.80;;;23.20;92.10;;;;;;5073310;28;20471;-77
2022/08/26 12:58:12;;;;;;;35.67;4.72;;;23.20;91.80;;;;;;5074578;28;20040;-75
2022/08/26 13:00:41;;;;;;;10.38;2.50;;;23.00;84.10;;;;;;5074335;28;20048;-73
2022/08/26 13:03:28;;;;;;;10.10;2.60;;;23.00;85.40;;;;;;5073255;28;20384;-73
2022/08/26 13:06:17;;;;;;;9.05;2.80;;;23.00;81.30;;;;;;5074546;28;20049;-73
2022/08/26 13:08:46;;;;;;;14.13;2.72;;;23.20;82.80;;;;;;5055753;28;20379;-73
2022/08/26 13:11:19;;;;;;;8.65;2.50;;;23.30;83.60;;;;;;5056885;28;20040;-74